sensor_id;sensor_type;location;lat;lon;timestamp;P1;P2;P0
51320;PMS5003;38732;49.556;6.286;2023-03-16T00:00:54;9.00;4.00;3.00
51320;PMS5003;38732;49.556;6.286;2023-03-16T00:03:22;3.75;3.75;2.00
51320;PMS5003;38732;49.556;6.286;2023-03-16T00:05:51;6.00;6.00;3.25
51320;PMS5003;38732;49.556;6.286;2023-03-16T00:08:20;4.00;4.00;1.00
51320;PMS5003;38732;49.556;6.286;2023-03-16T00:10:49;8.50;7.00;3.50
51320;PMS5003;38732;49.556;6.286;2023-03-16T00:13:17;6.75;6.75;3.75
51320;PMS5003;38732;49.556;6.286;2023-03-16T00:15:51;10.00;7.00;4.00
51320;PMS5003;38732;49.556;6.286;2023-03-16T00:18:24;5.40;5.20;3.40
51320;PMS5003;38732;49.556;6.286;2023-03-16T00:20:55;18.00;14.20;10.00
51320;PMS5003;38732;49.556;6.286;2023-03-16T00:23:25;3.00;3.00;2.60
51320;PMS5003;38732;49.556;6.286;2023-03-16T00:28:26;9.60;4.80;3.00
51320;PMS5003;38732;49.556;6.286;2023-03-16T00:30:54;8.20;6.00;4.00
51320;PMS5003;38732;49.556;6.286;2023-03-16T00:33:23;6.75;5.75;3.75
51320;PMS5003;38732;49.556;6.286;2023-03-16T00:35:51;3.75;3.75;1.00
51320;PMS5003;38732;49.556;6.286;2023-03-16T00:38:20;12.50;5.50;4.00
51320;PMS5003;38732;49.556;6.286;2023-03-16T00:40:48;18.50;17.50;9.00
51320;PMS5003;38732;49.556;6.286;2023-03-16T00:43:16;18.00;16.00;10.00
51320;PMS5003;38732;49.556;6.286;2023-03-16T00:45:44;10.00;8.00;2.00
51320;PMS5003;38732;49.556;6.286;2023-03-16T00:48:13;1.00;1.00;0.75
51320;PMS5003;38732;49.556;6.286;2023-03-16T00:50:41;10.50;7.25;3.75
51320;PMS5003;38732;49.556;6.286;2023-03-16T00:53:09;11.00;8.00;5.00
51320;PMS5003;38732;49.556;6.286;2023-03-16T00:55:37;5.50;4.50;3.00
51320;PMS5003;38732;49.556;6.286;2023-03-16T00:58:06;7.00;4.00;3.00
51320;PMS5003;38732;49.556;6.286;2023-03-16T01:00:34;4.00;0.00;0.00
51320;PMS5003;38732;49.556;6.286;2023-03-16T01:03:02;8.50;5.00;3.00
51320;PMS5003;38732;49.556;6.286;2023-03-16T01:05:30;5.75;3.75;1.00
51320;PMS5003;38732;49.556;6.286;2023-03-16T01:07:59;22.50;16.50;9.50
51320;PMS5003;38732;49.556;6.286;2023-03-16T01:10:27;7.00;7.00;3.25
51320;PMS5003;38732;49.556;6.286;2023-03-16T01:12:55;8.00;7.25;3.00
51320;PMS5003;38732;49.556;6.286;2023-03-16T01:15:23;3.00;3.00;0.00
51320;PMS5003;38732;49.556;6.286;2023-03-16T01:17:51;8.75;8.00;4.00
51320;PMS5003;38732;49.556;6.286;2023-03-16T01:20:20;6.00;4.00;3.00
51320;PMS5003;38732;49.556;6.286;2023-03-16T01:22:48;5.25;3.00;1.00
51320;PMS5003;38732;49.556;6.286;2023-03-16T01:25:16;5.00;5.00;2.50
51320;PMS5003;38732;49.556;6.286;2023-03-16T01:27:44;16.50;16.00;9.50
51320;PMS5003;38732;49.556;6.286;2023-03-16T01:30:13;9.75;7.50;3.25
51320;PMS5003;38732;49.556;6.286;2023-03-16T01:32:41;6.75;5.50;3.25
51320;PMS5003;38732;49.556;6.286;2023-03-16T01:35:09;7.00;6.00;3.00
51320;PMS5003;38732;49.556;6.286;2023-03-16T01:37:37;12.50;9.50;3.00
51320;PMS5003;38732;49.556;6.286;2023-03-16T01:40:06;12.50;12.50;8.00
51320;PMS5003;38732;49.556;6.286;2023-03-16T01:42:41;40.25;28.00;16.50
51320;PMS5003;38732;49.556;6.286;2023-03-16T01:48:21;12.00;6.60;3.00
51320;PMS5003;38732;49.556;6.286;2023-03-16T01:50:53;13.40;9.60;4.80
51320;PMS5003;38732;49.556;6.286;2023-03-16T01:53:22;7.80;5.60;3.00
51320;PMS5003;38732;49.556;6.286;2023-03-16T01:55:51;11.80;5.60;3.20
51320;PMS5003;38732;49.556;6.286;2023-03-16T01:58:20;6.00;4.00;3.00
51320;PMS5003;38732;49.556;6.286;2023-03-16T02:00:48;6.50;6.00;3.00
51320;PMS5003;38732;49.556;6.286;2023-03-16T02:03:17;14.50;12.75;6.00
51320;PMS5003;38732;49.556;6.286;2023-03-16T02:08:19;9.00;9.00;4.80
51320;PMS5003;38732;49.556;6.286;2023-03-16T02:10:49;19.00;17.20;9.40
51320;PMS5003;38732;49.556;6.286;2023-03-16T02:13:17;12.25;10.00;4.50
51320;PMS5003;38732;49.556;6.286;2023-03-16T02:15:46;19.00;17.25;10.50
51320;PMS5003;38732;49.556;6.286;2023-03-16T02:18:14;11.75;6.00;3.00
51320;PMS5003;38732;49.556;6.286;2023-03-16T02:20:46;6.00;6.00;2.00
51320;PMS5003;38732;49.556;6.286;2023-03-16T02:23:22;18.00;14.20;6.80
51320;PMS5003;38732;49.556;6.286;2023-03-16T02:28:48;5.80;4.40;3.20
51320;PMS5003;38732;49.556;6.286;2023-03-16T02:31:27;2.20;1.00;0.00
51320;PMS5003;38732;49.556;6.286;2023-03-16T02:33:56;19.50;17.50;9.75
51320;PMS5003;38732;49.556;6.286;2023-03-16T02:36:25;8.60;6.20;3.40
51320;PMS5003;38732;49.556;6.286;2023-03-16T02:38:55;10.00;6.60;3.60
51320;PMS5003;38732;49.556;6.286;2023-03-16T02:41:23;9.00;5.00;3.25
51320;PMS5003;38732;49.556;6.286;2023-03-16T02:43:53;9.50;6.50;3.25
51320;PMS5003;38732;49.556;6.286;2023-03-16T02:46:28;5.00;3.60;2.20
51320;PMS5003;38732;49.556;6.286;2023-03-16T02:48:59;19.80;18.80;12.40
51320;PMS5003;38732;49.556;6.286;2023-03-16T02:51:32;25.60;19.00;9.40
51320;PMS5003;38732;49.556;6.286;2023-03-16T02:54:00;9.50;6.00;3.75
51320;PMS5003;38732;49.556;6.286;2023-03-16T02:56:28;7.75;7.00;4.00
51320;PMS5003;38732;49.556;6.286;2023-03-16T02:58:56;8.50;6.75;4.00
51320;PMS5003;38732;49.556;6.286;2023-03-16T03:01:24;7.00;6.00;3.50
51320;PMS5003;38732;49.556;6.286;2023-03-16T03:03:53;6.75;4.00;3.00
51320;PMS5003;38732;49.556;6.286;2023-03-16T03:06:21;10.00;8.75;5.00
51320;PMS5003;38732;49.556;6.286;2023-03-16T03:08:49;14.00;8.50;6.00
51320;PMS5003;38732;49.556;6.286;2023-03-16T03:11:17;7.00;5.00;3.00
51320;PMS5003;38732;49.556;6.286;2023-03-16T03:13:46;6.75;6.75;4.00
51320;PMS5003;38732;49.556;6.286;2023-03-16T03:16:14;21.25;20.00;12.25
51320;PMS5003;38732;49.556;6.286;2023-03-16T03:18:42;9.00;7.00;4.00
51320;PMS5003;38732;49.556;6.286;2023-03-16T03:21:10;9.50;6.75;3.25
51320;PMS5003;38732;49.556;6.286;2023-03-16T03:23:39;20.25;17.00;11.00
51320;PMS5003;38732;49.556;6.286;2023-03-16T03:26:07;6.75;6.75;4.00
51320;PMS5003;38732;49.556;6.286;2023-03-16T03:28:35;8.00;8.00;5.50
51320;PMS5003;38732;49.556;6.286;2023-03-16T03:31:04;15.00;14.25;7.75
51320;PMS5003;38732;49.556;6.286;2023-03-16T03:33:32;15.50;12.50;6.50
51320;PMS5003;38732;49.556;6.286;2023-03-16T03:36:00;4.50;4.50;3.00
51320;PMS5003;38732;49.556;6.286;2023-03-16T03:38:28;6.00;4.50;3.00
51320;PMS5003;38732;49.556;6.286;2023-03-16T03:40:56;14.50;12.50;6.25
51320;PMS5003;38732;49.556;6.286;2023-03-16T03:43:25;9.75;6.75;4.00
51320;PMS5003;38732;49.556;6.286;2023-03-16T03:45:56;10.25;4.00;1.00
51320;PMS5003;38732;49.556;6.286;2023-03-16T03:48:25;7.40;5.20;2.60
51320;PMS5003;38732;49.556;6.286;2023-03-16T03:50:54;7.50;6.00;3.25
51320;PMS5003;38732;49.556;6.286;2023-03-16T03:53:22;6.25;6.25;4.00
51320;PMS5003;38732;49.556;6.286;2023-03-16T03:55:50;19.25;15.00;9.00
51320;PMS5003;38732;49.556;6.286;2023-03-16T03:58:19;6.25;4.00;2.50
51320;PMS5003;38732;49.556;6.286;2023-03-16T04:00:47;5.00;5.00;2.00
51320;PMS5003;38732;49.556;6.286;2023-03-16T04:03:15;10.75;6.75;4.00
51320;PMS5003;38732;49.556;6.286;2023-03-16T04:05:43;17.00;15.00;9.75
51320;PMS5003;38732;49.556;6.286;2023-03-16T04:08:11;12.00;9.75;4.50
51320;PMS5003;38732;49.556;6.286;2023-03-16T04:10:40;9.75;9.75;6.25
51320;PMS5003;38732;49.556;6.286;2023-03-16T04:13:08;6.50;4.50;3.00
51320;PMS5003;38732;49.556;6.286;2023-03-16T04:15:36;7.00;6.50;3.50
51320;PMS5003;38732;49.556;6.286;2023-03-16T04:18:04;16.00;9.50;6.00
51320;PMS5003;38732;49.556;6.286;2023-03-16T04:20:33;2.50;2.50;0.75
51320;PMS5003;38732;49.556;6.286;2023-03-16T04:23:01;8.50;4.50;3.50
51320;PMS5003;38732;49.556;6.286;2023-03-16T04:25:29;6.75;6.25;3.00
51320;PMS5003;38732;49.556;6.286;2023-03-16T04:27:58;6.50;6.50;3.00
51320;PMS5003;38732;49.556;6.286;2023-03-16T04:30:26;8.50;6.75;4.00
51320;PMS5003;38732;49.556;6.286;2023-03-16T04:32:54;9.75;9.00;6.00
51320;PMS5003;38732;49.556;6.286;2023-03-16T04:35:23;22.50;19.00;10.50
51320;PMS5003;38732;49.556;6.286;2023-03-16T04:37:51;23.75;20.25;13.50
51320;PMS5003;38732;49.556;6.286;2023-03-16T04:40:19;17.75;15.50;9.00
51320;PMS5003;38732;49.556;6.286;2023-03-16T04:42:47;19.75;14.50;8.00
51320;PMS5003;38732;49.556;6.286;2023-03-16T04:45:15;3.75;3.00;0.25
51320;PMS5003;38732;49.556;6.286;2023-03-16T04:47:44;13.25;8.00;4.00
51320;PMS5003;38732;49.556;6.286;2023-03-16T04:50:12;7.00;7.00;3.50
51320;PMS5003;38732;49.556;6.286;2023-03-16T04:52:40;7.00;7.00;4.00
51320;PMS5003;38732;49.556;6.286;2023-03-16T04:55:08;12.00;10.00;4.00
51320;PMS5003;38732;49.556;6.286;2023-03-16T04:57:37;10.00;6.50;4.00
51320;PMS5003;38732;49.556;6.286;2023-03-16T05:00:05;11.25;7.50;4.00
51320;PMS5003;38732;49.556;6.286;2023-03-16T05:02:34;12.75;12.00;9.50
51320;PMS5003;38732;49.556;6.286;2023-03-16T05:05:03;15.25;13.00;7.00
51320;PMS5003;38732;49.556;6.286;2023-03-16T05:07:32;1.00;1.00;0.60
51320;PMS5003;38732;49.556;6.286;2023-03-16T05:10:00;10.50;9.25;4.50
51320;PMS5003;38732;49.556;6.286;2023-03-16T05:12:28;7.75;6.75;3.75
51320;PMS5003;38732;49.556;6.286;2023-03-16T05:14:57;10.00;9.00;4.00
51320;PMS5003;38732;49.556;6.286;2023-03-16T05:17:25;16.50;15.25;9.00
51320;PMS5003;38732;49.556;6.286;2023-03-16T05:19:53;19.25;15.25;7.00
51320;PMS5003;38732;49.556;6.286;2023-03-16T05:22:21;14.25;13.25;8.25
51320;PMS5003;38732;49.556;6.286;2023-03-16T05:24:50;20.25;18.00;9.50
51320;PMS5003;38732;49.556;6.286;2023-03-16T05:27:18;25.75;20.00;11.50
51320;PMS5003;38732;49.556;6.286;2023-03-16T05:29:46;21.25;18.25;10.00
51320;PMS5003;38732;49.556;6.286;2023-03-16T05:32:14;18.00;15.25;9.50
51320;PMS5003;38732;49.556;6.286;2023-03-16T05:34:43;18.50;17.75;11.00
51320;PMS5003;38732;49.556;6.286;2023-03-16T05:37:11;16.00;15.75;9.00
51320;PMS5003;38732;49.556;6.286;2023-03-16T05:39:39;15.50;15.50;6.25
51320;PMS5003;38732;49.556;6.286;2023-03-16T05:42:07;18.75;17.00;9.50
51320;PMS5003;38732;49.556;6.286;2023-03-16T05:44:36;26.00;24.25;13.50
51320;PMS5003;38732;49.556;6.286;2023-03-16T05:47:04;17.25;17.25;9.00
51320;PMS5003;38732;49.556;6.286;2023-03-16T05:49:32;20.75;17.50;9.00
51320;PMS5003;38732;49.556;6.286;2023-03-16T05:52:00;15.50;14.25;10.00
51320;PMS5003;38732;49.556;6.286;2023-03-16T05:54:28;19.50;18.00;10.00
51320;PMS5003;38732;49.556;6.286;2023-03-16T05:56:57;26.75;21.75;12.50
51320;PMS5003;38732;49.556;6.286;2023-03-16T05:59:25;16.25;12.50;6.75
51320;PMS5003;38732;49.556;6.286;2023-03-16T06:01:53;21.00;19.00;9.50
51320;PMS5003;38732;49.556;6.286;2023-03-16T06:04:21;13.50;11.00;6.25
51320;PMS5003;38732;49.556;6.286;2023-03-16T06:06:50;12.00;7.00;3.75
51320;PMS5003;38732;49.556;6.286;2023-03-16T06:09:18;16.50;16.00;10.00
51320;PMS5003;38732;49.556;6.286;2023-03-16T06:11:46;12.50;11.00;6.00
51320;PMS5003;38732;49.556;6.286;2023-03-16T06:14:14;6.75;4.00;1.00
51320;PMS5003;38732;49.556;6.286;2023-03-16T06:16:42;14.50;11.75;7.00
51320;PMS5003;38732;49.556;6.286;2023-03-16T06:19:11;7.00;7.00;4.00
51320;PMS5003;38732;49.556;6.286;2023-03-16T06:21:39;18.75;16.00;9.25
51320;PMS5003;38732;49.556;6.286;2023-03-16T06:24:07;30.75;23.75;14.75
51320;PMS5003;38732;49.556;6.286;2023-03-16T06:26:35;19.25;17.50;12.75
51320;PMS5003;38732;49.556;6.286;2023-03-16T06:29:04;27.50;22.00;14.00
51320;PMS5003;38732;49.556;6.286;2023-03-16T06:31:33;24.80;17.80;10.00
51320;PMS5003;38732;49.556;6.286;2023-03-16T06:34:01;24.75;22.50;14.00
51320;PMS5003;38732;49.556;6.286;2023-03-16T06:36:30;17.75;15.25;10.50
51320;PMS5003;38732;49.556;6.286;2023-03-16T06:38:58;28.50;27.00;15.00
51320;PMS5003;38732;49.556;6.286;2023-03-16T06:41:26;24.00;21.00;12.75
51320;PMS5003;38732;49.556;6.286;2023-03-16T06:43:54;33.75;24.00;15.25
51320;PMS5003;38732;49.556;6.286;2023-03-16T06:46:22;24.75;22.00;15.25
51320;PMS5003;38732;49.556;6.286;2023-03-16T06:48:51;34.25;25.25;14.25
51320;PMS5003;38732;49.556;6.286;2023-03-16T06:51:19;26.00;22.75;11.50
51320;PMS5003;38732;49.556;6.286;2023-03-16T06:53:47;22.75;21.25;15.00
51320;PMS5003;38732;49.556;6.286;2023-03-16T06:56:15;27.00;24.50;12.00
51320;PMS5003;38732;49.556;6.286;2023-03-16T06:58:43;25.00;20.50;13.50
51320;PMS5003;38732;49.556;6.286;2023-03-16T07:01:12;25.50;20.50;12.00
51320;PMS5003;38732;49.556;6.286;2023-03-16T07:03:43;18.60;15.00;14.00
51320;PMS5003;38732;49.556;6.286;2023-03-16T07:06:11;26.50;21.50;14.25
51320;PMS5003;38732;49.556;6.286;2023-03-16T07:08:39;24.25;22.50;11.25
51320;PMS5003;38732;49.556;6.286;2023-03-16T07:11:08;25.50;20.25;11.75
51320;PMS5003;38732;49.556;6.286;2023-03-16T07:13:37;25.60;25.60;14.00
51320;PMS5003;38732;49.556;6.286;2023-03-16T07:16:05;21.00;16.50;7.25
51320;PMS5003;38732;49.556;6.286;2023-03-16T07:18:34;21.00;18.00;8.50
51320;PMS5003;38732;49.556;6.286;2023-03-16T07:21:02;28.75;20.50;13.25
51320;PMS5003;38732;49.556;6.286;2023-03-16T07:23:30;23.50;18.00;9.50
51320;PMS5003;38732;49.556;6.286;2023-03-16T07:25:58;24.75;20.75;12.75
51320;PMS5003;38732;49.556;6.286;2023-03-16T07:28:27;23.75;20.50;13.50
51320;PMS5003;38732;49.556;6.286;2023-03-16T07:30:55;20.25;18.25;13.25
51320;PMS5003;38732;49.556;6.286;2023-03-16T07:33:23;14.00;12.25;5.50
51320;PMS5003;38732;49.556;6.286;2023-03-16T07:35:51;22.00;19.25;12.00
51320;PMS5003;38732;49.556;6.286;2023-03-16T07:38:20;16.50;16.50;12.00
51320;PMS5003;38732;49.556;6.286;2023-03-16T07:40:48;17.00;13.75;11.25
51320;PMS5003;38732;49.556;6.286;2023-03-16T07:43:17;24.75;20.75;12.75
51320;PMS5003;38732;49.556;6.286;2023-03-16T07:45:48;23.00;23.00;14.00
51320;PMS5003;38732;49.556;6.286;2023-03-16T07:48:18;25.60;23.60;15.60
51320;PMS5003;38732;49.556;6.286;2023-03-16T07:50:47;25.20;21.60;12.60
51320;PMS5003;38732;49.556;6.286;2023-03-16T07:53:16;27.00;20.80;13.00
51320;PMS5003;38732;49.556;6.286;2023-03-16T07:55:45;28.50;23.25;13.00
51320;PMS5003;38732;49.556;6.286;2023-03-16T07:58:13;22.00;21.00;13.00
51320;PMS5003;38732;49.556;6.286;2023-03-16T08:00:41;27.75;18.25;12.50
51320;PMS5003;38732;49.556;6.286;2023-03-16T08:03:09;24.25;23.00;13.00
51320;PMS5003;38732;49.556;6.286;2023-03-16T08:05:38;24.75;21.50;15.00
51320;PMS5003;38732;49.556;6.286;2023-03-16T08:08:06;23.00;19.00;12.75
51320;PMS5003;38732;49.556;6.286;2023-03-16T08:10:34;21.25;19.00;12.00
51320;PMS5003;38732;49.556;6.286;2023-03-16T08:13:02;20.25;18.00;12.25
51320;PMS5003;38732;49.556;6.286;2023-03-16T08:15:31;20.50;18.50;13.00
51320;PMS5003;38732;49.556;6.286;2023-03-16T08:17:59;21.00;19.50;11.75
51320;PMS5003;38732;49.556;6.286;2023-03-16T08:20:28;15.80;12.40;8.00
51320;PMS5003;38732;49.556;6.286;2023-03-16T08:22:56;20.25;16.50;9.00
51320;PMS5003;38732;49.556;6.286;2023-03-16T08:25:25;15.50;15.50;10.00
51320;PMS5003;38732;49.556;6.286;2023-03-16T08:27:53;20.50;19.00;11.00
51320;PMS5003;38732;49.556;6.286;2023-03-16T08:30:21;27.00;16.25;10.00
51320;PMS5003;38732;49.556;6.286;2023-03-16T08:32:49;18.75;15.25;9.25
51320;PMS5003;38732;49.556;6.286;2023-03-16T08:35:17;19.50;16.75;10.00
51320;PMS5003;38732;49.556;6.286;2023-03-16T08:37:46;19.50;15.25;9.25
51320;PMS5003;38732;49.556;6.286;2023-03-16T08:40:14;20.00;16.00;9.00
51320;PMS5003;38732;49.556;6.286;2023-03-16T08:42:42;17.50;13.50;9.50
51320;PMS5003;38732;49.556;6.286;2023-03-16T08:45:10;19.50;17.00;9.50
51320;PMS5003;38732;49.556;6.286;2023-03-16T08:47:39;14.50;13.25;9.50
51320;PMS5003;38732;49.556;6.286;2023-03-16T08:50:08;12.50;10.00;6.00
51320;PMS5003;38732;49.556;6.286;2023-03-16T08:52:38;14.40;12.40;8.00
51320;PMS5003;38732;49.556;6.286;2023-03-16T08:55:06;14.50;10.75;7.50
51320;PMS5003;38732;49.556;6.286;2023-03-16T08:57:35;16.80;14.80;9.80
51320;PMS5003;38732;49.556;6.286;2023-03-16T09:00:04;13.50;13.25;8.50
51320;PMS5003;38732;49.556;6.286;2023-03-16T09:02:33;13.00;7.75;3.25
51320;PMS5003;38732;49.556;6.286;2023-03-16T09:05:01;10.25;10.25;7.00
51320;PMS5003;38732;49.556;6.286;2023-03-16T09:07:29;15.00;11.00;6.00
51320;PMS5003;38732;49.556;6.286;2023-03-16T09:09:57;14.50;13.50;8.50
51320;PMS5003;38732;49.556;6.286;2023-03-16T09:12:25;15.00;15.00;9.00
51320;PMS5003;38732;49.556;6.286;2023-03-16T09:14:54;18.00;15.50;10.00
51320;PMS5003;38732;49.556;6.286;2023-03-16T09:17:22;14.25;14.25;7.00
51320;PMS5003;38732;49.556;6.286;2023-03-16T09:19:50;11.25;11.25;7.50
51320;PMS5003;38732;49.556;6.286;2023-03-16T09:22:19;14.50;12.00;9.00
51320;PMS5003;38732;49.556;6.286;2023-03-16T09:24:48;12.60;11.00;7.00
51320;PMS5003;38732;49.556;6.286;2023-03-16T09:27:16;13.50;11.50;6.25
51320;PMS5003;38732;49.556;6.286;2023-03-16T09:29:45;13.20;12.00;9.20
51320;PMS5003;38732;49.556;6.286;2023-03-16T09:32:13;17.75;15.75;8.00
51320;PMS5003;38732;49.556;6.286;2023-03-16T09:34:42;10.00;10.00;6.75
51320;PMS5003;38732;49.556;6.286;2023-03-16T09:37:10;14.00;11.25;7.00
51320;PMS5003;38732;49.556;6.286;2023-03-16T09:39:38;13.25;13.25;8.50
51320;PMS5003;38732;49.556;6.286;2023-03-16T09:47:32;15.00;15.00;11.20
51320;PMS5003;38732;49.556;6.286;2023-03-16T09:50:03;14.60;12.00;7.80
51320;PMS5003;38732;49.556;6.286;2023-03-16T09:52:39;12.60;10.80;7.00
51320;PMS5003;38732;49.556;6.286;2023-03-16T09:57:55;16.40;11.60;6.40
51320;PMS5003;38732;49.556;6.286;2023-03-16T10:00:26;7.20;6.40;5.00
51320;PMS5003;38732;49.556;6.286;2023-03-16T10:05:46;11.20;10.40;6.00
51320;PMS5003;38732;49.556;6.286;2023-03-16T10:08:28;15.80;11.40;8.00
51320;PMS5003;38732;49.556;6.286;2023-03-16T10:13:50;11.60;10.20;6.20
51320;PMS5003;38732;49.556;6.286;2023-03-16T10:16:53;10.80;9.20;6.60
51320;PMS5003;38732;49.556;6.286;2023-03-16T10:19:35;13.40;11.20;7.00
51320;PMS5003;38732;49.556;6.286;2023-03-16T10:22:25;16.60;11.60;6.80
51320;PMS5003;38732;49.556;6.286;2023-03-16T10:25:06;9.40;7.40;5.80
51320;PMS5003;38732;49.556;6.286;2023-03-16T10:27:44;11.00;11.00;6.20
51320;PMS5003;38732;49.556;6.286;2023-03-16T10:30:23;10.20;10.20;6.60
51320;PMS5003;38732;49.556;6.286;2023-03-16T10:33:00;11.80;9.40;6.20
51320;PMS5003;38732;49.556;6.286;2023-03-16T10:38:08;9.00;8.00;4.00
51320;PMS5003;38732;49.556;6.286;2023-03-16T10:40:53;8.80;8.80;6.80
51320;PMS5003;38732;49.556;6.286;2023-03-16T10:43:21;9.50;9.50;7.00
51320;PMS5003;38732;49.556;6.286;2023-03-16T10:45:49;13.50;9.75;6.00
51320;PMS5003;38732;49.556;6.286;2023-03-16T10:48:19;9.75;9.50;6.50
51320;PMS5003;38732;49.556;6.286;2023-03-16T10:50:49;8.40;8.40;6.00
51320;PMS5003;38732;49.556;6.286;2023-03-16T10:53:20;11.60;9.40;6.40
51320;PMS5003;38732;49.556;6.286;2023-03-16T10:55:56;6.80;6.40;4.00
51320;PMS5003;38732;49.556;6.286;2023-03-16T10:58:29;10.40;9.00;5.00
51320;PMS5003;38732;49.556;6.286;2023-03-16T11:00:59;6.40;5.20;3.20
51320;PMS5003;38732;49.556;6.286;2023-03-16T11:03:28;7.50;7.00;4.00
51320;PMS5003;38732;49.556;6.286;2023-03-16T11:05:59;8.60;8.60;5.40
51320;PMS5003;38732;49.556;6.286;2023-03-16T11:08:38;7.40;5.20;3.60
51320;PMS5003;38732;49.556;6.286;2023-03-16T11:11:10;3.20;3.20;2.20
51320;PMS5003;38732;49.556;6.286;2023-03-16T11:13:47;4.20;3.00;1.00
51320;PMS5003;38732;49.556;6.286;2023-03-16T11:24:32;4.00;4.00;2.20
51320;PMS5003;38732;49.556;6.286;2023-03-16T11:27:07;5.20;4.60;3.00
51320;PMS5003;38732;49.556;6.286;2023-03-16T11:29:57;6.00;6.00;3.40
51320;PMS5003;38732;49.556;6.286;2023-03-16T11:32:32;4.00;4.00;3.00
51320;PMS5003;38732;49.556;6.286;2023-03-16T11:35:16;8.00;7.00;3.60
51320;PMS5003;38732;49.556;6.286;2023-03-16T11:38:32;5.60;5.60;4.00
51320;PMS5003;38732;49.556;6.286;2023-03-16T11:43:25;6.20;4.00;3.00
51320;PMS5003;38732;49.556;6.286;2023-03-16T11:46:26;6.20;4.00;3.20
51320;PMS5003;38732;49.556;6.286;2023-03-16T11:52:01;5.80;4.20;2.80
51320;PMS5003;38732;49.556;6.286;2023-03-16T12:05:54;4.80;3.60;1.40
51320;PMS5003;38732;49.556;6.286;2023-03-16T12:11:09;8.00;7.60;4.20
51320;PMS5003;38732;49.556;6.286;2023-03-16T12:16:22;3.20;3.00;2.00
51320;PMS5003;38732;49.556;6.286;2023-03-16T12:19:10;5.40;4.80;3.00
51320;PMS5003;38732;49.556;6.286;2023-03-16T12:21:44;5.40;5.00;4.00
51320;PMS5003;38732;49.556;6.286;2023-03-16T12:24:21;5.00;5.00;3.20
51320;PMS5003;38732;49.556;6.286;2023-03-16T12:26:54;4.40;4.20;3.00
51320;PMS5003;38732;49.556;6.286;2023-03-16T12:45:41;5.00;4.80;3.00
51320;PMS5003;38732;49.556;6.286;2023-03-16T12:48:32;3.40;3.40;2.80
51320;PMS5003;38732;49.556;6.286;2023-03-16T12:51:05;5.00;4.00;3.20
51320;PMS5003;38732;49.556;6.286;2023-03-16T12:53:51;8.50;5.75;3.50
51320;PMS5003;38732;49.556;6.286;2023-03-16T12:56:29;7.20;7.20;4.00
51320;PMS5003;38732;49.556;6.286;2023-03-16T12:59:01;5.40;4.20;2.00
51320;PMS5003;38732;49.556;6.286;2023-03-16T13:01:36;4.80;4.00;3.00
51320;PMS5003;38732;49.556;6.286;2023-03-16T13:04:10;4.60;4.60;3.00
51320;PMS5003;38732;49.556;6.286;2023-03-16T13:06:42;7.80;5.00;2.60
51320;PMS5003;38732;49.556;6.286;2023-03-16T13:09:12;3.80;3.80;2.00
51320;PMS5003;38732;49.556;6.286;2023-03-16T13:11:51;4.40;4.00;3.00
51320;PMS5003;38732;49.556;6.286;2023-03-16T13:14:31;4.75;4.00;3.00
51320;PMS5003;38732;49.556;6.286;2023-03-16T13:19:45;5.20;4.60;3.00
51320;PMS5003;38732;49.556;6.286;2023-03-16T13:22:30;4.40;4.40;2.20
51320;PMS5003;38732;49.556;6.286;2023-03-16T13:25:17;5.20;5.20;3.00
51320;PMS5003;38732;49.556;6.286;2023-03-16T13:27:53;7.80;4.80;2.00
51320;PMS5003;38732;49.556;6.286;2023-03-16T13:30:32;3.00;3.00;2.00
51320;PMS5003;38732;49.556;6.286;2023-03-16T13:33:08;3.20;3.20;1.00
51320;PMS5003;38732;49.556;6.286;2023-03-16T13:35:49;2.80;2.80;2.00
51320;PMS5003;38732;49.556;6.286;2023-03-16T13:38:20;5.20;4.00;2.40
51320;PMS5003;38732;49.556;6.286;2023-03-16T13:40:51;5.20;5.20;3.20
51320;PMS5003;38732;49.556;6.286;2023-03-16T13:43:22;6.20;4.00;3.00
51320;PMS5003;38732;49.556;6.286;2023-03-16T13:45:54;3.80;3.80;2.00
51320;PMS5003;38732;49.556;6.286;2023-03-16T13:48:23;4.00;4.00;3.00
51320;PMS5003;38732;49.556;6.286;2023-03-16T13:50:52;4.50;4.50;2.75
51320;PMS5003;38732;49.556;6.286;2023-03-16T13:53:26;2.00;2.00;0.40
51320;PMS5003;38732;49.556;6.286;2023-03-16T13:55:56;3.40;3.40;2.40
51320;PMS5003;38732;49.556;6.286;2023-03-16T13:58:32;3.00;3.00;1.40
51320;PMS5003;38732;49.556;6.286;2023-03-16T14:01:09;8.20;5.80;3.00
51320;PMS5003;38732;49.556;6.286;2023-03-16T14:03:47;4.60;4.00;3.00
51320;PMS5003;38732;49.556;6.286;2023-03-16T14:06:20;4.00;3.00;2.60
51320;PMS5003;38732;49.556;6.286;2023-03-16T14:08:51;3.40;3.40;2.00
51320;PMS5003;38732;49.556;6.286;2023-03-16T14:11:24;2.00;2.00;1.80
51320;PMS5003;38732;49.556;6.286;2023-03-16T14:13:54;2.00;2.00;1.00
51320;PMS5003;38732;49.556;6.286;2023-03-16T14:16:25;3.00;1.80;1.00
51320;PMS5003;38732;49.556;6.286;2023-03-16T14:21:33;2.00;2.00;1.00
51320;PMS5003;38732;49.556;6.286;2023-03-16T14:24:02;3.00;3.00;2.00
51320;PMS5003;38732;49.556;6.286;2023-03-16T14:29:45;1.00;1.00;1.00
51320;PMS5003;38732;49.556;6.286;2023-03-16T14:32:19;3.80;3.80;2.00
51320;PMS5003;38732;49.556;6.286;2023-03-16T14:34:49;3.60;2.80;2.00
51320;PMS5003;38732;49.556;6.286;2023-03-16T14:37:17;2.25;2.25;1.75
51320;PMS5003;38732;49.556;6.286;2023-03-16T14:39:56;3.00;3.00;2.00
51320;PMS5003;38732;49.556;6.286;2023-03-16T14:42:26;2.20;2.20;2.00
51320;PMS5003;38732;49.556;6.286;2023-03-16T14:44:57;2.80;2.80;2.00
51320;PMS5003;38732;49.556;6.286;2023-03-16T14:47:27;3.20;3.20;2.00
51320;PMS5003;38732;49.556;6.286;2023-03-16T14:49:59;2.80;2.80;2.00
51320;PMS5003;38732;49.556;6.286;2023-03-16T14:52:33;1.00;1.00;0.00
51320;PMS5003;38732;49.556;6.286;2023-03-16T14:55:08;3.50;3.50;2.00
51320;PMS5003;38732;49.556;6.286;2023-03-16T14:57:39;2.00;2.00;1.80
51320;PMS5003;38732;49.556;6.286;2023-03-16T15:00:09;2.40;2.00;2.00
51320;PMS5003;38732;49.556;6.286;2023-03-16T15:02:39;3.20;3.20;2.00
51320;PMS5003;38732;49.556;6.286;2023-03-16T15:05:14;3.00;3.00;2.00
51320;PMS5003;38732;49.556;6.286;2023-03-16T15:07:49;2.60;2.60;2.00
51320;PMS5003;38732;49.556;6.286;2023-03-16T15:10:24;2.80;2.80;2.00
51320;PMS5003;38732;49.556;6.286;2023-03-16T15:12:55;2.00;2.00;1.00
51320;PMS5003;38732;49.556;6.286;2023-03-16T15:15:23;3.00;3.00;2.00
51320;PMS5003;38732;49.556;6.286;2023-03-16T15:17:51;3.00;3.00;1.50
51320;PMS5003;38732;49.556;6.286;2023-03-16T15:20:33;3.75;2.00;1.25
51320;PMS5003;38732;49.556;6.286;2023-03-16T15:23:12;2.40;2.40;1.20
51320;PMS5003;38732;49.556;6.286;2023-03-16T15:25:43;2.00;2.00;1.00
51320;PMS5003;38732;49.556;6.286;2023-03-16T15:28:20;3.20;3.20;2.00
51320;PMS5003;38732;49.556;6.286;2023-03-16T15:30:50;5.40;3.20;2.40
51320;PMS5003;38732;49.556;6.286;2023-03-16T15:33:20;3.40;3.40;2.60
51320;PMS5003;38732;49.556;6.286;2023-03-16T15:35:49;2.00;2.00;1.25
51320;PMS5003;38732;49.556;6.286;2023-03-16T15:38:29;2.40;2.40;1.40
51320;PMS5003;38732;49.556;6.286;2023-03-16T15:40:59;3.80;2.60;1.00
51320;PMS5003;38732;49.556;6.286;2023-03-16T15:43:28;3.50;3.50;1.75
51320;PMS5003;38732;49.556;6.286;2023-03-16T15:45:57;3.00;2.40;2.00
51320;PMS5003;38732;49.556;6.286;2023-03-16T15:48:26;3.00;3.00;2.00
51320;PMS5003;38732;49.556;6.286;2023-03-16T15:50:58;3.75;3.75;3.00